Time;durP1;ratioP1;P1;durP2;ratioP2;P2;SDS_P1;SDS_P2;PMS_P1;PMS_P2;Temp;Humidity;BMP_temperature;BMP_pressure;BME280_temperature;BME280_humidity;BME280_pressure;Samples;Min_cycle;Max_cycle;Signal;HPM_P1;HPM_P2
2022/05/21 00:01:07;;;;;;;;;;;;;;;10.98;88.85;101906.84;4991232;28;20030;-84
2022/05/21 00:03:54;;;;;;;;;;;;;;;;;;;;;
2022/05/21 00:09:05;;;;;;;14.85;10.10;;;;;;;10.90;89.84;101898.56;5015361;28;20071;-85
2022/05/21 00:11:53;;;;;;;13.68;10.13;;;;;;;10.89;90.17;101896.84;5029239;28;20061;-84
2022/05/21 00:14:22;;;;;;;13.40;9.48;;;;;;;10.90;89.74;101906.44;5030150;28;20548;-86
2022/05/21 00:16:48;;;;;;;12.05;9.50;;;;;;;10.89;89.86;101896.84;5052419;28;20028;-85
2022/05/21 00:19:29;;;;;;;13.15;9.30;;;;;;;10.93;90.15;101912.38;5035410;28;20099;-86
2022/05/21 00:21:57;;;;;;;9.82;8.10;;;;;;;10.89;90.23;101902.97;5052212;28;20033;-86
2022/05/21 00:24:23;;;;;;;10.00;8.65;;;;;;;10.89;90.20;101907.41;5030451;28;20127;-85
2022/05/21 00:27:28;;;;;;;;;;;;;;;;;;;;;
2022/05/21 00:29:50;;;;;;;10.10;7.72;;;;;;;10.86;89.81;101907.56;5026493;28;20120;-86
2022/05/21 00:32:21;;;;;;;9.75;7.60;;;;;;;10.86;90.02;101907.56;5016265;28;20121;-85
2022/05/21 00:35:11;;;;;;;10.55;7.95;;;;;;;10.86;90.17;101918.09;5010935;28;20026;-85
2022/05/21 00:38:25;;;;;;;12.75;7.40;;;;;;;10.86;90.54;101918.94;5027095;28;20033;-86
2022/05/21 00:41:31;;;;;;;12.05;6.95;;;;;;;10.83;90.01;101918.28;5052651;28;20025;-86
2022/05/21 00:44:24;;;;;;;8.50;6.28;;;;;;;10.81;90.34;101914.88;5052382;28;20029;-86
2022/05/21 00:47:24;;;;;;;11.02;6.65;;;;;;;10.82;90.46;101911.31;5000377;28;20069;-86
2022/05/21 00:50:22;;;;;;;9.60;6.63;;;;;;;10.87;90.12;101914.53;4986994;28;20043;-85
2022/05/21 00:56:56;;;;;;;6.65;5.70;;;;;;;11.00;89.99;101920.78;4964417;28;20061;-86
2022/05/21 00:59:57;;;;;;;;;;;;;;;;;;;;;
2022/05/21 01:03:30;;;;;;;;;;;;;;;;;;;;;
2022/05/21 01:06:06;;;;;;;10.35;5.65;;;;;;;11.04;90.00;101914.38;4918643;28;20043;-84
2022/05/21 01:08:56;;;;;;;11.90;5.70;;;;;;;11.10;90.20;101919.28;4980540;28;20030;-83
2022/05/21 01:15:18;;;;;;;10.15;5.22;;;;;;;11.08;89.75;101910.63;4988967;28;20422;-85
2022/05/21 01:17:44;;;;;;;9.32;5.55;;;;;;;11.10;89.53;101913.16;4991475;28;20034;-87
2022/05/21 01:20:29;;;;;;;13.50;5.20;;;;;;;11.08;89.86;101908.00;4987340;28;20070;-86
2022/05/21 01:22:56;;;;;;;8.38;4.68;;;;;;;11.10;89.88;101911.38;4993381;28;20137;-85
2022/05/21 01:25:46;;;;;;;8.05;4.40;;;;;;;11.19;89.58;101917.88;5013830;28;20041;-87
2022/05/21 01:28:36;;;;;;;14.63;5.10;;;;;;;11.14;89.81;101907.63;5007423;28;20053;-86
2022/05/21 01:32:09;;;;;;;13.60;5.07;;;;;;;11.23;89.45;101906.25;5017101;28;20018;-86
2022/05/21 01:34:39;;;;;;;12.55;5.00;;;;;;;11.16;89.74;101904.91;4919093;28;20035;-86
2022/05/21 01:37:06;;;;;;;7.55;4.00;;;;;;;11.20;89.27;101896.72;4941537;29;20158;-86
2022/05/21 01:39:34;;;;;;;8.65;4.70;;;;;;;11.17;89.64;101907.44;4952030;28;20035;-85
2022/05/21 01:42:05;;;;;;;8.88;4.60;;;;;;;11.20;88.83;101896.72;4954197;28;20468;-85
2022/05/21 01:45:10;;;;;;;13.17;4.43;;;;;;;11.22;89.23;101892.25;4954331;28;20047;-86
2022/05/21 01:47:41;;;;;;;9.50;4.63;;;;;;;11.26;89.38;101898.16;5026868;28;20029;-85
2022/05/21 01:50:27;;;;;;;9.63;4.72;;;;;;;11.25;89.73;101894.69;5021506;28;20450;-85
2022/05/21 01:52:59;;;;;;;10.23;4.75;;;;;;;11.28;89.26;101902.41;5031492;28;20095;-86
2022/05/21 01:55:49;;;;;;;;;;;;;;;;;;;;;
2022/05/21 02:01:37;;;;;;;10.13;5.22;;;;;;;11.36;89.19;101901.09;5009356;28;20437;-85
2022/05/21 02:04:11;;;;;;;8.68;5.60;;;;;;;11.32;89.02;101889.91;5016778;28;20026;-86
2022/05/21 02:11:00;;;;;;;10.13;4.80;;;;;;;11.38;89.01;101899.22;5002042;28;20470;-85
2022/05/21 02:13:54;;;;;;;13.40;4.72;;;;;;;11.41;88.84;101910.41;4936844;28;20050;-86
2022/05/21 02:16:45;;;;;;;12.50;4.85;;;;;;;11.38;89.31;101904.47;4982173;28;20045;-85
2022/05/21 02:19:34;;;;;;;10.80;4.90;;;;;;;11.40;89.24;101919.25;5028596;28;20033;-86
2022/05/21 02:22:26;;;;;;;13.07;4.95;;;;;;;11.44;89.26;101918.13;5026620;28;20832;-85
2022/05/21 02:31:50;;;;;;;9.55;4.50;;;;;;;11.43;89.13;101910.31;5004613;28;20195;-85
2022/05/21 02:34:18;;;;;;;11.00;4.60;;;;;;;11.43;89.20;101902.41;5030776;28;20021;-85
2022/05/21 02:43:39;;;;;;;;;;;;;;;;;;;;;
2022/05/21 02:46:24;;;;;;;15.85;4.90;;;;;;;11.44;89.03;101904.09;5041864;28;20032;-85
2022/05/21 02:48:49;;;;;;;9.75;4.90;;;;;;;11.46;89.16;101910.13;5030103;28;20037;-86
2022/05/21 02:51:32;;;;;;;12.88;5.03;;;;;;;11.44;89.02;101909.38;5027605;28;20285;-86
2022/05/21 02:54:17;;;;;;;;;;;;;;;;;;;;;
2022/05/21 02:56:51;;;;;;;12.45;5.18;;;;;;;11.45;88.92;101911.06;5050821;28;20024;-85
2022/05/21 02:59:26;;;;;;;14.75;5.72;;;;;;;11.47;89.21;101910.03;5033556;28;20673;-86
2022/05/21 03:02:33;;;;;;;;;;;;;;;;;;;;;
2022/05/21 03:11:28;;;;;;;12.77;5.50;;;;;;;11.47;88.95;101914.47;5048867;28;20572;-86
2022/05/21 03:13:54;;;;;;;11.02;5.40;;;;;;;11.47;89.23;101915.31;5031826;28;20535;-86
2022/05/21 03:16:24;;;;;;;11.52;5.53;;;;;;;11.43;89.29;101907.69;5048479;28;20033;-85
2022/05/21 03:19:10;;;;;;;13.88;5.78;;;;;;;11.49;89.08;101918.69;5031693;28;20086;-83
2022/05/21 03:21:46;;;;;;;13.55;5.90;;;;;;;11.44;89.70;101901.47;5032271;28;20049;-84
2022/05/21 03:24:17;;;;;;;10.73;5.70;;;;;;;11.46;89.04;101899.59;5029288;28;20112;-85
2022/05/21 03:27:07;;;;;;;12.32;6.15;;;;;;;11.46;89.39;101902.22;5035998;28;20021;-84
2022/05/21 03:29:35;;;;;;;11.93;5.55;;;;;;;11.43;89.38;101903.25;5015487;28;20076;-85
2022/05/21 03:32:04;;;;;;;11.73;6.00;;;;;;;11.44;89.39;101901.47;5039883;28;20425;-84
2022/05/21 03:34:50;;;;;;;13.23;6.35;;;;;;;11.43;89.57;101907.69;5022399;28;20032;-84
2022/05/21 03:38:19;;;;;;;;;;;;;;;;;;;;;
2022/05/21 03:40:48;;;;;;;13.57;6.53;;;;;;;11.46;89.90;101910.97;5037992;28;20047;-85
2022/05/21 03:43:51;;;;;;;15.80;6.15;;;;;;;11.46;89.83;101907.50;5036799;28;20028;-85
2022/05/21 03:46:40;;;;;;;14.15;6.43;;;;;;;11.45;89.89;101911.06;5008570;28;20117;-85
2022/05/21 03:49:51;;;;;;;14.38;5.95;;;;;;;11.52;89.82;101917.66;5025182;28;20072;-86
2022/05/21 03:52:16;;;;;;;13.80;6.20;;;;;;;11.48;89.65;101910.88;4986500;28;20038;-86
2022/05/21 03:54:42;;;;;;;15.38;5.78;;;;;;;11.50;89.37;101920.38;5020532;28;20044;-85
2022/05/21 03:57:07;;;;;;;13.10;5.38;;;;;;;11.50;89.89;101925.66;5007069;28;20232;-86
2022/05/21 03:59:34;;;;;;;16.15;6.05;;;;;;;11.51;89.77;101926.50;5024890;28;20067;-86
2022/05/21 04:01:59;;;;;;;15.25;5.95;;;;;;;11.51;90.09;101929.13;5023571;28;20309;-86
2022/05/21 04:04:24;;;;;;;14.07;5.95;;;;;;;11.53;89.89;101929.91;5018061;28;20040;-86
2022/05/21 04:06:50;;;;;;;18.27;6.40;;;;;;;11.51;89.78;101927.34;5004393;28;20640;-86
2022/05/21 04:09:15;;;;;;;12.90;5.57;;;;;;;11.51;89.75;101934.41;5012128;28;20029;-85
2022/05/21 04:11:40;;;;;;;17.10;6.57;;;;;;;11.53;89.98;101936.00;5014486;28;20043;-86
2022/05/21 04:14:07;;;;;;;16.85;6.63;;;;;;;11.55;89.64;101936.75;5015204;28;20042;-86
2022/05/21 04:16:35;;;;;;;13.55;6.35;;;;;;;11.53;90.03;101937.81;5033365;28;20045;-86
2022/05/21 04:19:01;;;;;;;13.40;6.35;;;;;;;11.54;89.86;101937.72;5030254;28;20113;-85
2022/05/21 04:21:28;;;;;;;14.35;6.20;;;;;;;11.57;89.85;101941.94;5050445;28;20441;-85
2022/05/21 04:23:53;;;;;;;14.70;6.10;;;;;;;11.59;89.97;101940.06;5055266;28;20067;-87
2022/05/21 04:26:19;;;;;;;17.48;7.22;;;;;;;11.59;89.70;101942.69;5055830;28;20032;-86
2022/05/21 04:28:44;;;;;;;16.67;6.55;;;;;;;11.61;89.97;101949.59;5052017;28;20068;-85
2022/05/21 04:31:09;;;;;;;16.70;6.97;;;;;;;11.62;89.81;101947.81;5035465;28;20025;-85
2022/05/21 04:33:35;;;;;;;14.15;7.10;;;;;;;11.64;89.56;101945.09;5050264;28;20370;-86
2022/05/21 04:38:54;;;;;;;17.40;7.50;;;;;;;11.64;89.77;101959.09;5052750;28;20090;-86
2022/05/21 04:41:23;;;;;;;15.75;7.82;;;;;;;11.66;89.65;101957.22;5058305;28;20013;-86
2022/05/21 04:43:50;;;;;;;21.90;8.50;;;;;;;11.66;89.73;101959.88;5052177;28;20100;-86
2022/05/21 04:46:19;;;;;;;19.35;8.80;;;;;;;11.67;89.83;101958.06;5041008;28;20036;-86
2022/05/21 04:48:46;;;;;;;20.05;8.75;;;;;;;11.68;89.92;101960.63;5032947;28;20385;-85
2022/05/21 04:51:12;;;;;;;18.52;8.60;;;;;;;11.66;89.26;101956.38;5049716;28;20544;-86
2022/05/21 04:53:38;;;;;;;19.67;7.97;;;;;;;11.69;89.69;101957.03;5051881;28;20047;-86
2022/05/21 04:56:05;;;;;;;16.77;8.05;;;;;;;11.70;89.48;101969.28;5028813;28;20064;-86
2022/05/21 04:58:31;;;;;;;15.77;9.25;;;;;;;11.71;89.53;101963.06;5049348;28;20033;-86
2022/05/21 05:00:57;;;;;;;19.70;9.05;;;;;;;11.73;89.59;101969.09;5032528;28;20091;-85
2022/05/21 05:03:23;;;;;;;16.13;8.98;;;;;;;11.75;89.49;101967.22;5021839;28;20114;-85
2022/05/21 05:05:48;;;;;;;20.00;10.02;;;;;;;11.77;89.53;101965.31;5033855;28;20040;-85
2022/05/21 05:08:16;;;;;;;22.40;11.38;;;;;;;11.83;89.61;101969.41;5032377;28;20151;-86
2022/05/21 05:10:42;;;;;;;22.63;11.13;;;;;;;11.85;89.43;101973.63;5032279;28;20116;-85
2022/05/21 05:13:08;;;;;;;21.25;11.10;;;;;;;11.93;89.83;101965.25;5051493;28;20114;-86
2022/05/21 05:15:34;;;;;;;27.95;11.55;;;;;;;11.96;89.49;101970.34;5051446;28;20060;-86
2022/05/21 05:18:09;;;;;;;22.20;11.30;;;;;;;12.02;89.41;101979.69;5042018;28;20305;-86
2022/05/21 05:20:35;;;;;;;21.55;11.70;;;;;;;12.01;89.06;101978.84;5033299;28;20029;-86
2022/05/21 05:23:01;;;;;;;19.58;11.07;;;;;;;12.02;89.03;101979.69;5051026;28;20032;-85
2022/05/21 05:25:26;;;;;;;22.38;10.88;;;;;;;12.06;88.97;101986.47;5050814;28;20049;-86
2022/05/21 05:27:52;;;;;;;23.77;11.85;;;;;;;12.05;88.83;101985.63;5034748;28;20050;-84
2022/05/21 05:30:20;;;;;;;25.27;11.50;;;;;;;12.05;88.54;101979.50;5033733;28;20032;-86
2022/05/21 05:32:45;;;;;;;24.27;11.85;;;;;;;12.10;88.86;101986.19;5051434;28;20036;-85
2022/05/21 05:35:11;;;;;;;20.73;12.32;;;;;;;12.13;89.13;101993.06;5049471;28;20532;-85
2022/05/21 05:37:37;;;;;;;28.95;13.55;;;;;;;12.20;88.79;101995.22;5032710;28;20116;-86
2022/05/21 05:40:05;;;;;;;25.80;12.80;;;;;;;12.24;88.76;101995.84;5050681;28;20111;-87
2022/05/21 05:42:30;;;;;;;23.65;12.50;;;;;;;12.32;88.64;102000.66;5033146;28;20083;-85
2022/05/21 05:44:55;;;;;;;23.15;11.65;;;;;;;12.38;88.17;102003.75;5050248;28;20099;-85
2022/05/21 05:47:21;;;;;;;23.95;11.93;;;;;;;12.44;88.04;101992.84;5027345;28;20029;-85
2022/05/21 05:49:48;;;;;;;24.63;12.18;;;;;;;12.49;87.52;101995.19;5032314;28;20116;-84
2022/05/21 05:52:14;;;;;;;23.52;12.80;;;;;;;12.46;87.33;102003.28;5034244;28;20022;-85
2022/05/21 05:54:42;;;;;;;24.58;12.73;;;;;;;12.46;87.62;101998.00;5012406;28;20446;-85
2022/05/21 05:57:10;;;;;;;25.00;13.40;;;;;;;12.43;87.45;102008.75;5036133;28;20064;-84
2022/05/21 05:59:49;;;;;;;29.20;13.70;;;;;;;12.49;87.25;102000.47;5045890;28;20116;-84
2022/05/21 06:04:59;;;;;;;24.80;13.75;;;;;;;12.52;87.36;102006.38;5049259;28;20074;-85
2022/05/21 06:07:25;;;;;;;28.25;14.30;;;;;;;12.59;87.27;102006.00;5049120;28;20540;-84
2022/05/21 06:09:50;;;;;;;32.25;15.75;;;;;;;12.58;87.57;102006.94;5050320;28;20063;-84
2022/05/21 06:12:15;;;;;;;24.38;14.20;;;;;;;12.68;87.19;102000.97;5049181;28;20033;-84
2022/05/21 06:14:42;;;;;;;23.98;14.80;;;;;;;12.78;86.56;102006.50;5031754;28;20028;-85
2022/05/21 06:17:09;;;;;;;26.88;14.98;;;;;;;12.85;86.87;102008.66;5049731;28;20033;-85
2022/05/21 06:19:35;;;;;;;29.92;14.80;;;;;;;12.90;85.91;102026.84;5049272;28;20028;-83
2022/05/21 06:22:02;;;;;;;24.10;14.85;;;;;;;12.96;85.81;102013.22;5049277;28;20033;-83
2022/05/21 06:24:28;;;;;;;25.15;15.15;;;;;;;13.00;85.88;102014.72;5049421;28;20167;-85
2022/05/21 06:26:54;;;;;;;36.92;15.90;;;;;;;13.02;85.34;102026.03;5033358;28;20068;-85
2022/05/21 06:29:19;;;;;;;24.90;15.07;;;;;;;13.01;85.40;102024.34;5047136;28;20057;-85
2022/05/21 06:31:45;;;;;;;23.35;14.38;;;;;;;13.00;85.73;102027.94;5034853;28;20029;-85
2022/05/21 06:34:10;;;;;;;28.83;14.77;;;;;;;13.05;85.78;102028.47;5029644;28;20051;-83
2022/05/21 06:36:36;;;;;;;28.40;15.40;;;;;;;13.16;85.26;102022.47;5043794;28;20079;-83
2022/05/21 06:39:01;;;;;;;25.83;14.70;;;;;;;13.32;85.62;102027.66;5029171;28;20025;-82
2022/05/21 06:41:29;;;;;;;31.38;15.27;;;;;;;13.46;85.04;102030.22;5045901;28;20017;-82
2022/05/21 06:43:55;;;;;;;26.08;16.15;;;;;;;13.66;84.92;102031.53;5028620;28;20036;-85
2022/05/21 06:46:20;;;;;;;30.52;16.33;;;;;;;13.79;83.71;102032.38;5031480;28;20013;-86
2022/05/21 06:48:48;;;;;;;27.33;15.13;;;;;;;13.91;82.55;102038.59;5037506;28;20029;-85
2022/05/21 06:51:14;;;;;;;31.90;15.32;;;;;;;13.94;81.50;102041.03;5023345;28;20112;-85
2022/05/21 06:53:40;;;;;;;25.20;14.73;;;;;;;13.98;82.25;102042.53;5042475;28;20057;-86
2022/05/21 06:56:16;;;;;;;25.67;14.90;;;;;;;13.96;81.34;102036.50;5027820;28;20071;-85
2022/05/21 06:58:43;;;;;;;29.40;15.93;;;;;;;13.94;81.32;102046.34;5041113;28;20083;-84
2022/05/21 07:01:09;;;;;;;26.90;16.20;;;;;;;13.86;81.19;102038.09;5046723;28;20104;-85
2022/05/21 07:03:35;;;;;;;30.92;16.20;;;;;;;13.82;81.22;102041.91;5043488;28;20472;-83
2022/05/21 07:08:45;;;;;;;28.30;17.00;;;;;;;13.84;81.47;102051.41;5040777;28;20408;-84
2022/05/21 07:11:10;;;;;;;29.00;16.85;;;;;;;13.89;81.13;102057.25;5042011;28;20038;-85
2022/05/21 07:13:35;;;;;;;29.45;16.42;;;;;;;13.92;81.42;102058.81;5030067;28;20036;-84
2022/05/21 07:16:01;;;;;;;30.10;17.80;;;;;;;13.98;81.52;102063.69;5048385;28;20017;-85
2022/05/21 07:18:27;;;;;;;32.35;16.70;;;;;;;14.04;80.92;102060.66;5048618;28;20028;-85
2022/05/21 07:20:54;;;;;;;29.60;15.88;;;;;;;14.05;80.03;102063.19;5028652;28;20028;-83
2022/05/21 07:23:21;;;;;;;28.20;16.60;;;;;;;14.10;80.67;102074.31;5047598;28;20024;-83
2022/05/21 07:25:49;;;;;;;29.33;16.40;;;;;;;14.20;80.09;102069.22;5045076;28;20067;-83
2022/05/21 07:28:19;;;;;;;28.60;15.90;;;;;;;14.20;79.82;102071.84;5048311;28;20021;-84
2022/05/21 07:30:45;;;;;;;29.42;16.27;;;;;;;14.29;79.25;102078.31;5041571;28;20021;-84
2022/05/21 07:33:13;;;;;;;24.85;16.25;;;;;;;14.34;79.97;102074.38;5034638;28;20029;-83
2022/05/21 07:35:38;;;;;;;30.05;15.75;;;;;;;14.54;79.72;102067.72;5043247;28;20115;-83
2022/05/21 07:38:08;;;;;;;26.77;15.35;;;;;;;14.68;78.69;102064.91;5051786;28;20653;-84
2022/05/21 07:40:36;;;;;;;27.50;15.63;;;;;;;14.79;78.17;102061.50;5051592;28;20079;-84
2022/05/21 07:43:27;;;;;;;29.70;14.38;;;;;;;14.81;77.88;102070.22;5031105;28;20029;-85
2022/05/21 07:45:54;;;;;;;26.33;14.75;;;;;;;14.93;75.98;102068.47;5023624;28;20041;-84
2022/05/21 07:48:20;;;;;;;27.58;15.20;;;;;;;15.26;75.29;102065.16;5049506;28;20028;-83
2022/05/21 07:50:49;;;;;;;30.25;14.82;;;;;;;15.64;74.22;102076.41;5047435;28;20040;-83
2022/05/21 07:53:24;;;;;;;26.52;14.73;;;;;;;15.93;73.95;102070.66;5037410;28;20029;-84
2022/05/21 07:55:52;;;;;;;26.48;13.80;;;;;;;15.88;72.72;102071.03;5034445;28;20032;-84
2022/05/21 07:58:19;;;;;;;26.05;12.00;;;;;;;16.02;71.98;102070.00;5033485;28;20032;-84
2022/05/21 08:00:44;;;;;;;23.17;11.10;;;;;;;16.33;71.58;102070.22;5033114;28;20059;-84
2022/05/21 08:03:10;;;;;;;22.10;11.48;;;;;;;16.27;69.87;102075.06;5030892;28;20485;-84
2022/05/21 08:05:37;;;;;;;19.90;10.07;;;;;;;16.28;69.85;102087.38;5052156;28;20327;-84
2022/05/21 08:08:07;;;;;;;24.38;10.02;;;;;;;16.17;69.25;102089.19;5034049;28;20017;-84
2022/05/21 08:10:33;;;;;;;21.00;10.60;;;;;;;16.18;70.47;102083.75;5052157;28;20112;-83
2022/05/21 08:12:59;;;;;;;20.52;10.93;;;;;;;16.47;69.36;102085.94;5051769;28;20222;-84
2022/05/21 08:15:24;;;;;;;21.58;11.18;;;;;;;16.77;68.76;102087.97;5051674;28;20024;-84
2022/05/21 08:17:50;;;;;;;21.80;12.02;;;;;;;17.15;67.77;102087.53;5051766;28;20033;-83
2022/05/21 08:20:16;;;;;;;23.13;11.93;;;;;;;17.48;67.67;102086.56;5015804;28;20052;-83
2022/05/21 08:28:15;;;;;;;19.67;10.65;;;;;;;18.04;63.27;102086.31;5035524;28;20036;-83
2022/05/21 08:30:43;;;;;;;26.30;11.98;;;;;;;17.98;63.49;102095.63;5032856;28;20053;-83
2022/05/21 08:33:09;;;;;;;17.58;10.40;;;;;;;18.08;62.88;102096.56;5042970;28;20070;-83
2022/05/21 08:35:38;;;;;;;21.13;11.32;;;;;;;18.24;62.78;102098.75;5052992;28;20025;-83
2022/05/21 08:38:04;;;;;;;19.13;10.13;;;;;;;18.23;62.69;102097.06;5052222;28;20025;-84
2022/05/21 08:40:55;;;;;;;19.58;10.55;;;;;;;18.17;64.82;102090.44;5052527;28;20025;-83
2022/05/21 08:43:40;;;;;;;17.48;9.50;;;;;;;18.04;62.42;102097.81;5052084;28;20025;-84
2022/05/21 08:46:34;;;;;;;23.15;10.68;;;;;;;18.05;63.75;102104.81;5051538;28;20558;-83
2022/05/21 08:49:06;;;;;;;21.15;10.50;;;;;;;18.05;63.20;102099.50;5051810;28;20036;-83
2022/05/21 08:51:43;;;;;;;21.83;10.32;;;;;;;17.92;63.16;102082.84;5043854;28;20022;-83
2022/05/21 08:54:11;;;;;;;19.95;10.90;;;;;;;17.67;63.09;102091.25;5048930;28;20025;-83
2022/05/21 08:56:37;;;;;;;17.65;10.13;;;;;;;17.59;63.87;102088.31;5046960;28;20033;-83
2022/05/21 08:59:06;;;;;;;22.25;10.60;;;;;;;17.67;63.81;102083.25;5043460;28;20385;-84
2022/05/21 09:01:35;;;;;;;23.05;10.40;;;;;;;17.98;63.35;102095.63;5016836;28;20017;-82
2022/05/21 09:04:00;;;;;;;20.35;8.90;;;;;;;18.05;61.16;102088.84;5043170;28;20051;-82
2022/05/21 09:06:33;;;;;;;18.00;8.98;;;;;;;18.01;61.88;102086.53;5039623;28;21356;-82
2022/05/21 09:09:20;;;;;;;19.90;9.23;;;;;;;17.99;63.46;102091.16;5043353;28;20033;-83
2022/05/21 09:11:49;;;;;;;19.27;8.60;;;;;;;17.91;61.76;102085.66;5029013;28;20040;-83
2022/05/21 09:14:23;;;;;;;16.83;8.50;;;;;;;18.05;60.99;102080.84;5029384;28;20056;-82
2022/05/21 09:16:56;;;;;;;16.75;8.30;;;;;;;18.39;61.07;102068.09;5032438;28;20026;-83
2022/05/21 09:19:28;;;;;;;17.65;8.30;;;;;;;18.71;59.31;102067.94;5033978;28;20025;-83
2022/05/21 09:22:00;;;;;;;17.42;7.85;;;;;;;18.91;60.11;102063.50;5042790;28;20039;-82
2022/05/21 09:24:39;;;;;;;16.60;7.75;;;;;;;18.96;59.95;102063.09;5045947;28;20037;-82
2022/05/21 09:27:42;;;;;;;15.77;7.53;;;;;;;18.87;60.51;102055.94;5042238;28;20473;-83
2022/05/21 09:30:23;;;;;;;16.00;7.28;;;;;;;18.57;57.97;102060.31;5031890;28;20029;-82
2022/05/21 09:32:53;;;;;;;15.40;6.00;;;;;;;18.44;58.27;102067.72;5035204;28;20476;-82
2022/05/21 09:35:34;;;;;;;13.25;4.90;;;;;;;18.35;58.15;102066.66;5030514;28;20104;-83
2022/05/21 09:38:13;;;;;;;13.05;5.25;;;;;;;18.58;59.08;102070.00;5040595;28;20079;-83
2022/05/21 09:40:40;;;;;;;14.65;6.10;;;;;;;18.78;56.84;102071.75;5040971;28;20017;-83
2022/05/21 09:46:28;;;;;;;11.30;5.70;;;;;;;18.39;59.80;102075.22;5040449;28;20515;-82
2022/05/21 09:49:15;;;;;;;15.95;6.05;;;;;;;18.03;61.26;102081.97;5040734;28;20032;-83
2022/05/21 09:51:41;;;;;;;11.73;4.50;;;;;;;17.67;60.10;102072.63;5040777;28;20473;-83
2022/05/21 09:54:37;;;;;;;15.80;5.60;;;;;;;17.79;61.78;102083.06;5029350;28;20040;-82
2022/05/21 09:57:04;;;;;;;14.75;5.68;;;;;;;17.99;59.95;102078.69;5032106;28;20041;-83
2022/05/21 09:59:33;;;;;;;14.00;5.70;;;;;;;18.31;59.73;102093.72;5029767;28;20052;-83
2022/05/21 10:02:12;;;;;;;12.38;5.55;;;;;;;18.63;60.11;102067.78;5027850;28;20491;-82
2022/05/21 10:04:43;;;;;;;17.38;6.65;;;;;;;18.84;57.67;102078.38;5023721;28;20065;-83
2022/05/21 10:10:58;;;;;;;14.73;7.65;;;;;;;18.69;58.03;102082.41;5020294;28;20072;-83
2022/05/21 10:12:49;;;;;;;15.60;7.50;;;;;;;18.65;57.93;102095.16;5039691;28;20048;-82
2022/05/21 10:15:22;;;;;;;20.10;8.00;;;;;;;18.69;58.80;102098.41;5038150;28;20033;-82
2022/05/21 10:17:53;;;;;;;16.17;7.32;;;;;;;18.90;58.95;102093.00;5035768;28;20215;-83
2022/05/21 10:20:23;;;;;;;15.13;7.18;;;;;;;18.87;57.70;102085.25;5029297;28;20021;-83
2022/05/21 10:23:13;;;;;;;21.98;9.00;;;;;;;18.71;59.86;102086.59;5031576;28;20025;-83
2022/05/21 10:25:54;;;;;;;15.68;10.00;;;;;;;18.55;59.80;102096.91;5029281;28;20576;-81
2022/05/21 10:28:54;;;;;;;13.48;8.75;;;;;;;18.47;60.41;102089.59;5041470;28;20037;-83
2022/05/21 10:31:36;;;;;;;19.30;9.20;;;;;;;18.54;61.01;102089.91;4994083;28;20056;-84
2022/05/21 10:34:44;;;;;;;18.13;9.40;;;;;;;18.64;61.56;102090.81;5018226;28;20179;-81
2022/05/21 10:37:34;;;;;;;13.93;6.80;;;;;;;18.82;59.15;102088.34;5023054;28;20472;-82
2022/05/21 10:40:35;;;;;;;13.50;5.38;;;;;;;18.95;57.86;102088.09;5041466;28;20024;-82
2022/05/21 10:43:12;;;;;;;16.05;6.00;;;;;;;19.07;56.63;102077.16;5039382;28;20481;-82
2022/05/21 10:45:46;;;;;;;14.35;5.40;;;;;;;19.36;58.13;102087.00;5027676;28;20033;-82
2022/05/21 10:48:23;;;;;;;12.98;6.88;;;;;;;19.43;56.86;102088.13;5026741;28;20032;-83
2022/05/21 10:50:56;;;;;;;12.70;6.72;;;;;;;19.38;56.63;102085.88;5031036;28;20029;-83
2022/05/21 10:53:40;;;;;;;;;;;;;;;19.52;58.71;102089.09;5027829;28;20106;-82
2022/05/21 10:56:11;;;;;;;12.05;4.30;;;;;;;19.54;55.44;102089.84;5040263;28;20007;-82
2022/05/21 10:59:02;;;;;;;9.20;4.82;;;;;;;19.69;54.37;102089.28;5043390;28;20037;-82
2022/05/21 11:01:49;;;;;;;10.00;4.97;;;;;;;19.66;55.86;102086.06;5039388;28;20485;-82
2022/05/21 11:04:34;;;;;;;10.55;4.10;;;;;;;19.45;54.66;102090.66;5039753;28;20024;-84
2022/05/21 11:07:25;;;;;;;12.57;4.15;;;;;;;19.56;53.82;102088.69;5040314;28;20424;-83
2022/05/21 11:09:59;;;;;;;12.38;4.32;;;;;;;19.59;54.05;102091.09;5045066;28;20037;-84
2022/05/21 11:12:46;;;;;;;9.63;4.35;;;;;;;19.60;55.08;102097.28;5052197;28;20063;-83
2022/05/21 11:15:27;;;;;;;12.27;4.22;;;;;;;19.46;56.32;102095.00;5052034;28;20040;-82
2022/05/21 11:17:59;;;;;;;11.57;4.55;;;;;;;19.82;55.72;102090.78;5030527;28;20029;-82
2022/05/21 11:20:26;;;;;;;;;;;;;;;20.05;56.08;102094.00;5037128;28;20497;-84
2022/05/21 11:23:03;;;;;;;12.40;3.67;;;;;;;20.05;53.76;102089.50;5019380;28;20390;-85
2022/05/21 11:25:37;;;;;;;14.75;4.72;;;;;;;20.28;52.66;102089.97;5037320;28;20045;-82
2022/05/21 11:28:24;;;;;;;10.50;3.10;;;;;;;20.21;52.32;102095.06;5047175;28;20140;-85
2022/05/21 11:30:57;;;;;;;11.18;3.50;;;;;;;20.05;51.72;102102.00;5039093;28;20029;-84
2022/05/21 11:39:10;;;;;;;10.70;3.88;;;;;;;20.48;52.64;102096.97;5046053;28;20044;-84
2022/05/21 11:41:54;;;;;;;11.43;3.92;;;;;;;20.73;53.73;102091.91;5025733;28;20036;-86
2022/05/21 11:47:05;;;;;;;9.75;3.15;;;;;;;21.06;49.57;102083.25;5034582;28;20421;-84
2022/05/21 11:49:51;;;;;;;8.60;3.53;;;;;;;21.14;50.49;102083.31;5045456;28;20025;-86
2022/05/21 11:52:46;;;;;;;10.52;3.40;;;;;;;21.06;51.18;102075.22;5052610;28;20271;-87
2022/05/21 11:55:26;;;;;;;11.85;4.32;;;;;;;21.22;50.08;102078.06;5029007;28;20099;-85
2022/05/21 11:58:04;;;;;;;10.50;4.30;;;;;;;21.25;49.12;102075.13;5017319;28;20029;-86
2022/05/21 12:00:29;;;;;;;9.35;3.95;;;;;;;21.33;49.95;102079.72;5043448;28;20018;-84
2022/05/21 12:02:55;;;;;;;12.00;4.30;;;;;;;21.29;48.13;102074.81;5029031;28;20037;-85
2022/05/21 12:05:40;;;;;;;12.80;4.40;;;;;;;21.35;48.73;102068.84;5042253;28;20029;-84
2022/05/21 12:08:21;;;;;;;10.95;3.72;;;;;;;21.53;50.36;102072.31;5046557;28;21701;-84
2022/05/21 12:10:55;;;;;;;11.15;3.88;;;;;;;21.62;49.01;102075.94;5013232;28;20493;-83
2022/05/21 12:13:47;;;;;;;10.13;3.42;;;;;;;21.66;47.87;102069.28;5042956;28;20087;-85
2022/05/21 12:16:15;;;;;;;11.88;3.83;;;;;;;21.44;47.40;102073.25;5035882;28;20037;-84
2022/05/21 12:18:44;;;;;;;10.13;3.83;;;;;;;21.26;47.88;102075.97;5042405;28;20039;-84
2022/05/21 12:23:57;;;;;;;10.25;3.40;;;;;;;21.01;47.30;102077.50;5018235;28;20444;-84
2022/05/21 12:26:27;;;;;;;10.10;3.42;;;;;;;20.87;46.74;102072.69;5032647;28;20029;-87
2022/05/21 12:28:56;;;;;;;9.07;2.88;;;;;;;20.86;47.36;102060.31;5044329;28;20116;-85
2022/05/21 12:31:27;;;;;;;9.45;2.92;;;;;;;21.18;48.86;102063.28;5032841;28;20033;-84
2022/05/21 12:34:22;;;;;;;9.70;3.55;;;;;;;21.52;49.28;102070.66;5031528;28;20033;-87
2022/05/21 12:37:10;;;;;;;9.40;3.53;;;;;;;21.51;47.82;102069.81;5028071;28;20176;-87
2022/05/21 12:39:47;;;;;;;9.85;3.60;;;;;;;21.72;47.25;102066.81;5044068;28;20031;-87
2022/05/21 12:42:39;;;;;;;8.55;2.90;;;;;;;22.02;48.86;102068.19;5025043;28;20029;-87
2022/05/21 12:45:07;;;;;;;8.32;2.65;;;;;;;22.20;44.90;102070.81;5040169;28;20029;-85
2022/05/21 12:47:36;;;;;;;9.48;3.30;;;;;;;22.27;45.89;102071.84;5041134;28;20104;-84
2022/05/21 12:50:13;;;;;;;10.75;2.70;;;;;;;22.47;46.40;102059.91;5041721;28;20036;-85
2022/05/21 12:52:52;;;;;;;6.25;2.70;;;;;;;22.44;45.55;102062.91;5024232;28;20021;-87
2022/05/21 12:55:18;;;;;;;8.40;2.92;;;;;;;22.21;44.39;102067.13;5041196;28;20025;-87
2022/05/21 12:57:44;;;;;;;10.55;3.35;;;;;;;22.13;46.37;102069.78;5014452;28;20026;-87
2022/05/21 13:00:10;;;;;;;8.60;3.30;;;;;;;21.94;45.25;102064.59;5028201;28;20017;-86
2022/05/21 13:02:46;;;;;;;5.72;2.33;;;;;;;21.77;45.07;102069.84;5040172;28;20021;-87
2022/05/21 13:05:23;;;;;;;10.18;3.28;;;;;;;21.65;45.64;102065.75;5026302;28;20032;-87
2022/05/21 13:07:52;;;;;;;10.18;2.22;;;;;;;21.41;43.86;102060.19;5041832;28;20025;-86
2022/05/21 13:10:22;;;;;;;9.57;2.72;;;;;;;21.38;46.11;102053.31;5046107;28;20037;-86